Time;durP1;ratioP1;P1;durP2;ratioP2;P2;SDS_P1;SDS_P2;PMS_P1;PMS_P2;Temp;Humidity;BMP_temperature;BMP_pressure;BME280_temperature;BME280_humidity;BME280_pressure;Samples;Min_cycle;Max_cycle;Signal;HPM_P1;HPM_P2
2020/12/12 00:02:30;;;;;;;23.27;10.90;;;;;;;;;;5066007;28;20333;-77
2020/12/12 00:05:42;;;;;;;23.77;11.13;;;;;;;;;;5065490;28;20686;-77
2020/12/12 00:08:54;;;;;;;26.70;10.87;;;;;;;;;;5047532;28;20203;-77
2020/12/12 00:12:05;;;;;;;31.77;14.87;;;;;;;;;;5073185;28;20210;-78
2020/12/12 00:15:17;;;;;;;24.90;11.00;;;;;;;;;;5043224;28;20275;-78
2020/12/12 00:18:28;;;;;;;25.53;11.40;;;;;;;;;;5042975;28;20286;-77
2020/12/12 00:21:39;;;;;;;27.93;12.20;;;;;;;;;;5043863;28;20238;-78
2020/12/12 00:24:50;;;;;;;25.63;12.43;;;;;;;;;;5033520;28;20200;-78
2020/12/12 00:28:02;;;;;;;29.00;12.30;;;;;;;;;;5071933;28;20239;-78
2020/12/12 00:31:15;;;;;;;29.13;12.93;;;;;;;;;;5041668;28;20321;-78
2020/12/12 00:34:27;;;;;;;31.03;13.17;;;;;;;;;;5052856;28;20231;-77
2020/12/12 00:37:39;;;;;;;26.93;11.70;;;;;;;;;;5055568;28;20246;-77
2020/12/12 00:40:57;;;;;;;24.30;11.23;;;;;;;;;;5048696;28;20222;-77
2020/12/12 00:44:08;;;;;;;22.77;10.97;;;;;;;;;;5053775;28;20231;-78
2020/12/12 00:47:20;;;;;;;28.40;11.73;;;;;;;;;;5063511;28;20210;-78
2020/12/12 00:50:31;;;;;;;26.57;11.07;;;;;;;;;;5078104;28;20210;-78
2020/12/12 00:53:42;;;;;;;28.07;11.37;;;;;;;;;;5062585;28;20239;-78
2020/12/12 00:56:54;;;;;;;26.77;12.07;;;;;;;;;;5043171;28;20693;-78
2020/12/12 01:00:06;;;;;;;27.20;11.83;;;;;;;;;;5053560;28;20628;-77
2020/12/12 01:03:16;;;;;;;26.53;11.43;;;;;;;;;;5051710;28;20226;-78
2020/12/12 01:06:28;;;;;;;29.07;11.67;;;;;;;;;;5052139;28;20581;-78
2020/12/12 01:09:39;;;;;;;27.80;11.43;;;;;;;;;;5051979;28;20207;-78
2020/12/12 01:12:51;;;;;;;24.00;10.90;;;;;;;;;;5065941;28;20297;-78
2020/12/12 01:16:06;;;;;;;28.47;11.47;;;;;;;;;;5052691;28;20211;-78
2020/12/12 01:19:16;;;;;;;26.57;11.20;;;;;;;;;;5053687;28;20218;-78
2020/12/12 01:22:27;;;;;;;26.97;11.70;;;;;;;;;;5060179;28;20203;-78
2020/12/12 01:25:39;;;;;;;28.87;12.07;;;;;;;;;;5051175;28;20238;-78
2020/12/12 01:28:52;;;;;;;28.90;13.03;;;;;;;;;;5052062;28;20207;-78
2020/12/12 01:32:03;;;;;;;27.80;12.37;;;;;;;;;;5055939;28;20329;-77
2020/12/12 01:35:14;;;;;;;29.43;13.10;;;;;;;;;;5060623;28;20219;-77
2020/12/12 01:38:25;;;;;;;26.20;11.70;;;;;;;;;;5060600;28;20229;-77
2020/12/12 01:41:36;;;;;;;28.73;12.40;;;;;;;;;;5070302;28;20210;-76
2020/12/12 01:44:47;;;;;;;30.77;12.40;;;;;;;;;;5062005;28;20227;-77
2020/12/12 01:47:59;;;;;;;29.60;12.27;;;;;;;;;;5051060;28;20267;-77
2020/12/12 01:51:11;;;;;;;28.80;12.17;;;;;;;;;;5059494;28;20230;-78
2020/12/12 01:54:22;;;;;;;29.23;12.53;;;;;;;;;;5038787;28;20599;-77
2020/12/12 01:57:34;;;;;;;29.33;12.00;;;;;;;;;;5032479;28;20208;-77
2020/12/12 02:00:46;;;;;;;27.83;12.20;;;;;;;;;;5053570;28;20282;-77
2020/12/12 02:03:58;;;;;;;32.20;11.80;;;;;;;;;;5055526;28;20295;-77
2020/12/12 02:07:09;;;;;;;26.97;11.97;;;;;;;;;;5067101;28;20191;-77
2020/12/12 02:10:20;;;;;;;24.90;11.17;;;;;;;;;;5077091;28;20206;-78
2020/12/12 02:13:30;;;;;;;31.83;12.63;;;;;;;;;;5071167;28;20273;-77
2020/12/12 02:16:52;;;;;;;25.70;11.63;;;;;;;;;;5068036;28;20206;-78
2020/12/12 02:20:04;;;;;;;22.97;10.90;;;;;;;;;;5069983;28;20210;-77
2020/12/12 02:23:17;;;;;;;27.73;11.70;;;;;;;;;;5059072;28;20778;-77
2020/12/12 02:26:28;;;;;;;25.03;10.87;;;;;;;;;;5064133;28;20257;-77
2020/12/12 02:29:44;;;;;;;27.13;11.67;;;;;;;;;;5064553;28;20207;-77
2020/12/12 02:32:56;;;;;;;27.23;12.17;;;;;;;;;;5058851;28;20230;-77
2020/12/12 02:36:07;;;;;;;25.37;11.10;;;;;;;;;;5076096;28;20206;-78
2020/12/12 02:39:18;;;;;;;25.83;11.47;;;;;;;;;;5064230;28;20215;-77
2020/12/12 02:42:30;;;;;;;28.60;12.03;;;;;;;;;;5054597;28;20199;-78
2020/12/12 02:45:40;;;;;;;28.07;12.03;;;;;;;;;;5054889;28;20341;-77
2020/12/12 02:48:52;;;;;;;29.20;12.77;;;;;;;;;;5049400;28;20280;-78
2020/12/12 02:52:06;;;;;;;26.27;12.43;;;;;;;;;;5062987;28;20202;-78
2020/12/12 02:55:18;;;;;;;32.27;13.60;;;;;;;;;;5073791;28;20248;-78
2020/12/12 02:58:30;;;;;;;29.83;12.07;;;;;;;;;;5054752;28;20311;-78
2020/12/12 03:01:41;;;;;;;27.70;12.43;;;;;;;;;;5075227;28;20318;-78
2020/12/12 03:04:51;;;;;;;29.50;12.30;;;;;;;;;;5034956;28;20219;-77
2020/12/12 03:08:03;;;;;;;28.80;11.80;;;;;;;;;;5034081;28;20200;-77
2020/12/12 03:11:15;;;;;;;28.40;12.93;;;;;;;;;;5047906;28;20276;-78
2020/12/12 03:14:26;;;;;;;30.90;12.83;;;;;;;;;;5064807;28;20604;-77
2020/12/12 03:17:37;;;;;;;30.47;12.30;;;;;;;;;;5054512;28;20233;-77
2020/12/12 03:20:49;;;;;;;27.07;11.90;;;;;;;;;;5054604;28;20215;-77
2020/12/12 03:23:59;;;;;;;24.57;11.73;;;;;;;;;;5059391;28;20222;-77
2020/12/12 03:27:12;;;;;;;28.77;12.63;;;;;;;;;;5074426;28;20240;-77
2020/12/12 03:30:23;;;;;;;27.17;11.77;;;;;;;;;;5058897;28;20195;-78
2020/12/12 03:33:34;;;;;;;27.57;11.97;;;;;;;;;;5054455;28;20360;-77
2020/12/12 03:36:46;;;;;;;26.00;11.83;;;;;;;;;;5055264;28;20210;-77
2020/12/12 03:39:57;;;;;;;25.30;11.83;;;;;;;;;;5064043;28;20202;-77
2020/12/12 03:43:08;;;;;;;29.87;12.57;;;;;;;;;;5054100;28;20240;-77
2020/12/12 03:46:20;;;;;;;28.23;12.37;;;;;;;;;;5047366;28;20229;-78
2020/12/12 03:49:33;;;;;;;26.53;11.70;;;;;;;;;;5056980;28;20198;-78
2020/12/12 03:52:43;;;;;;;26.87;11.87;;;;;;;;;;5083206;28;20277;-78
2020/12/12 03:55:54;;;;;;;27.87;12.23;;;;;;;;;;5073859;28;20229;-77
2020/12/12 03:59:07;;;;;;;28.40;12.43;;;;;;;;;;5080044;28;20276;-77
2020/12/12 04:02:19;;;;;;;26.73;11.83;;;;;;;;;;5066909;28;20214;-77
2020/12/12 04:05:30;;;;;;;33.03;12.20;;;;;;;;;;5077203;28;20218;-77
2020/12/12 04:08:41;;;;;;;28.80;12.17;;;;;;;;;;5058497;28;20236;-77
2020/12/12 04:11:52;;;;;;;29.73;13.63;;;;;;;;;;5070951;28;20293;-77
2020/12/12 04:15:05;;;;;;;26.20;12.80;;;;;;;;;;5055754;28;20569;-77
2020/12/12 04:18:15;;;;;;;31.87;13.23;;;;;;;;;;5076269;28;20244;-78
2020/12/12 04:21:27;;;;;;;34.03;14.37;;;;;;;;;;5062500;28;20573;-78
2020/12/12 04:24:37;;;;;;;28.97;13.67;;;;;;;;;;5056891;28;20227;-77
2020/12/12 04:27:49;;;;;;;33.00;13.93;;;;;;;;;;5042485;28;20219;-78
2020/12/12 04:31:01;;;;;;;31.47;13.97;;;;;;;;;;5050468;28;20222;-78
2020/12/12 04:34:14;;;;;;;32.63;13.77;;;;;;;;;;5056309;28;20258;-77
2020/12/12 04:37:25;;;;;;;34.07;14.93;;;;;;;;;;5059929;28;20304;-77
2020/12/12 04:40:37;;;;;;;30.33;13.03;;;;;;;;;;5053941;28;20195;-78
2020/12/12 04:43:49;;;;;;;30.63;13.53;;;;;;;;;;5034064;28;20379;-78
2020/12/12 04:47:02;;;;;;;31.23;12.63;;;;;;;;;;5042567;28;20218;-78
2020/12/12 04:50:14;;;;;;;31.77;13.23;;;;;;;;;;5070127;28;20320;-78
2020/12/12 04:53:25;;;;;;;29.40;12.93;;;;;;;;;;5054757;28;20248;-78
2020/12/12 04:56:37;;;;;;;31.17;13.40;;;;;;;;;;5033652;28;20291;-78
2020/12/12 04:59:48;;;;;;;32.87;13.70;;;;;;;;;;5059830;28;20275;-78
2020/12/12 05:03:00;;;;;;;33.00;14.40;;;;;;;;;;5058257;28;20234;-77
2020/12/12 05:06:11;;;;;;;31.03;13.87;;;;;;;;;;5052772;28;20211;-77
2020/12/12 05:09:23;;;;;;;32.03;12.63;;;;;;;;;;5064697;28;20224;-77
2020/12/12 05:12:35;;;;;;;30.70;14.27;;;;;;;;;;5053386;28;20337;-78
2020/12/12 05:15:47;;;;;;;28.37;13.17;;;;;;;;;;5051882;28;20195;-77
2020/12/12 05:18:59;;;;;;;29.93;13.50;;;;;;;;;;5061731;28;20271;-78
2020/12/12 05:22:14;;;;;;;29.47;13.57;;;;;;;;;;5067728;28;20214;-78
2020/12/12 05:25:24;;;;;;;31.30;14.30;;;;;;;;;;5055935;28;20214;-77
2020/12/12 05:28:35;;;;;;;30.20;13.07;;;;;;;;;;5053521;28;20310;-78
2020/12/12 05:31:50;;;;;;;29.57;14.17;;;;;;;;;;5056832;28;20211;-78
2020/12/12 05:35:03;;;;;;;28.10;13.43;;;;;;;;;;5053054;28;20214;-77
2020/12/12 05:38:13;;;;;;;32.67;13.80;;;;;;;;;;5063191;28;20709;-78
2020/12/12 05:41:26;;;;;;;28.77;13.10;;;;;;;;;;5053015;28;20198;-78
2020/12/12 05:44:37;;;;;;;29.90;12.80;;;;;;;;;;5052745;28;20258;-78
2020/12/12 05:47:52;;;;;;;29.97;13.17;;;;;;;;;;5059976;28;20206;-78
2020/12/12 05:51:04;;;;;;;26.83;12.93;;;;;;;;;;5032038;28;20250;-78
2020/12/12 05:54:23;;;;;;;29.77;13.50;;;;;;;;;;5069087;28;20288;-78
2020/12/12 05:57:34;;;;;;;30.07;13.13;;;;;;;;;;5055244;28;20256;-78
2020/12/12 06:00:45;;;;;;;30.83;13.93;;;;;;;;;;5046159;28;20215;-78
2020/12/12 06:03:59;;;;;;;30.50;13.73;;;;;;;;;;5072808;28;20688;-78
2020/12/12 06:07:18;;;;;;;30.50;13.73;;;;;;;;;;5057009;28;20230;-78
2020/12/12 06:10:31;;;;;;;29.87;14.23;;;;;;;;;;5063504;28;20260;-78
2020/12/12 06:13:42;;;;;;;32.97;14.33;;;;;;;;;;5074842;28;20332;-79
2020/12/12 06:16:53;;;;;;;30.50;13.67;;;;;;;;;;5036821;28;20334;-79
2020/12/12 06:20:05;;;;;;;30.53;13.80;;;;;;;;;;5056624;28;20254;-79
2020/12/12 06:23:17;;;;;;;29.73;14.13;;;;;;;;;;5075288;28;20637;-78
2020/12/12 06:26:33;;;;;;;31.27;14.10;;;;;;;;;;5064125;28;20210;-78
2020/12/12 06:29:45;;;;;;;31.50;14.83;;;;;;;;;;5060110;28;20207;-78
2020/12/12 06:33:00;;;;;;;32.43;13.23;;;;;;;;;;5054658;28;20247;-78
2020/12/12 06:36:22;;;;;;;29.47;12.90;;;;;;;;;;5055018;28;20231;-78
2020/12/12 06:39:44;;;;;;;28.90;13.47;;;;;;;;;;5035046;28;20240;-78
2020/12/12 06:42:55;;;;;;;31.50;14.00;;;;;;;;;;5049340;28;20234;-78
2020/12/12 06:46:07;;;;;;;33.50;14.70;;;;;;;;;;5067271;28;20686;-78
2020/12/12 06:49:19;;;;;;;34.00;15.00;;;;;;;;;;5065835;28;20206;-78
2020/12/12 06:52:30;;;;;;;32.30;13.80;;;;;;;;;;5081014;28;20210;-78
2020/12/12 06:55:42;;;;;;;34.23;14.87;;;;;;;;;;5042274;28;20342;-78
2020/12/12 06:58:54;;;;;;;37.03;15.83;;;;;;;;;;5036792;28;20285;-78
2020/12/12 07:02:05;;;;;;;43.03;18.03;;;;;;;;;;5067903;28;20225;-78
2020/12/12 07:05:18;;;;;;;41.57;17.70;;;;;;;;;;5067859;28;20226;-78
2020/12/12 07:08:31;;;;;;;36.87;16.10;;;;;;;;;;5075809;28;20248;-78
2020/12/12 07:11:42;;;;;;;40.63;17.60;;;;;;;;;;5061874;28;20284;-78
2020/12/12 07:14:54;;;;;;;32.70;14.97;;;;;;;;;;5054836;28;20210;-78
2020/12/12 07:18:05;;;;;;;45.30;18.23;;;;;;;;;;5036304;28;20335;-78
2020/12/12 07:21:18;;;;;;;39.70;15.27;;;;;;;;;;5054021;28;20215;-78
2020/12/12 07:24:29;;;;;;;37.33;15.77;;;;;;;;;;5066246;28;20230;-78
2020/12/12 07:27:41;;;;;;;38.40;15.67;;;;;;;;;;5074934;28;20202;-78
2020/12/12 07:30:53;;;;;;;35.93;14.60;;;;;;;;;;5082691;28;20210;-78
2020/12/12 07:34:03;;;;;;;37.60;15.17;;;;;;;;;;5071764;28;20234;-78
2020/12/12 07:37:14;;;;;;;41.97;15.63;;;;;;;;;;5068796;28;20269;-78
2020/12/12 07:40:31;;;;;;;41.27;16.60;;;;;;;;;;5072953;28;20218;-78
2020/12/12 07:43:53;;;;;;;48.33;18.57;;;;;;;;;;5058309;28;20222;-78
2020/12/12 07:47:04;;;;;;;42.13;17.17;;;;;;;;;;5047794;28;20196;-78
2020/12/12 07:50:16;;;;;;;37.77;15.47;;;;;;;;;;5056013;28;20643;-78
2020/12/12 07:53:28;;;;;;;44.77;16.87;;;;;;;;;;5073431;28;20593;-77
2020/12/12 07:56:48;;;;;;;39.47;16.80;;;;;;;;;;5034598;28;20215;-78
2020/12/12 08:00:08;;;;;;;46.40;17.73;;;;;;;;;;5035230;28;20267;-78
2020/12/12 08:03:23;;;;;;;41.97;17.27;;;;;;;;;;5034820;28;20235;-78
2020/12/12 08:06:34;;;;;;;47.30;17.27;;;;;;;;;;5062023;28;20206;-78
2020/12/12 08:09:48;;;;;;;48.60;17.47;;;;;;;;;;5065591;28;20232;-78
2020/12/12 08:13:00;;;;;;;46.13;17.73;;;;;;;;;;5034448;28;20347;-78
2020/12/12 08:16:16;;;;;;;53.20;17.43;;;;;;;;;;5035316;28;20223;-78
2020/12/12 08:19:28;;;;;;;42.07;16.67;;;;;;;;;;5074859;28;20357;-78
2020/12/12 08:22:40;;;;;;;43.80;16.73;;;;;;;;;;5073356;28;20274;-78
2020/12/12 08:25:50;;;;;;;45.53;16.50;;;;;;;;;;5077925;28;20210;-78
2020/12/12 08:29:02;;;;;;;48.60;17.67;;;;;;;;;;5069028;28;20577;-77
2020/12/12 08:32:34;;;;;;;48.50;18.07;;;;;;;;;;5076193;28;20213;-78
2020/12/12 08:35:45;;;;;;;45.30;17.33;;;;;;;;;;5067558;28;20226;-78
2020/12/12 08:38:57;;;;;;;58.80;19.93;;;;;;;;;;5061907;28;20280;-78
2020/12/12 08:42:08;;;;;;;60.43;21.30;;;;;;;;;;5057957;28;20211;-78
2020/12/12 08:45:19;;;;;;;59.10;21.33;;;;;;;;;;5054407;28;20377;-78
2020/12/12 08:48:33;;;;;;;49.83;18.63;;;;;;;;;;5056040;28;20207;-78
2020/12/12 08:51:52;;;;;;;54.07;18.80;;;;;;;;;;5049518;28;20257;-79
2020/12/12 08:55:04;;;;;;;55.57;18.20;;;;;;;;;;5054065;28;20242;-79
2020/12/12 08:58:16;;;;;;;50.17;17.83;;;;;;;;;;5063378;28;20211;-78
2020/12/12 09:01:31;;;;;;;52.73;19.10;;;;;;;;;;5057119;28;21565;-77
2020/12/12 09:04:43;;;;;;;49.47;18.40;;;;;;;;;;5069144;28;20225;-79
2020/12/12 09:07:55;;;;;;;50.03;18.40;;;;;;;;;;5063691;28;20357;-78
2020/12/12 09:11:10;;;;;;;51.10;17.70;;;;;;;;;;5078735;28;20195;-77
2020/12/12 09:14:22;;;;;;;56.77;19.20;;;;;;;;;;5065024;28;20226;-77
2020/12/12 09:17:34;;;;;;;54.60;19.00;;;;;;;;;;5068128;28;20214;-76
2020/12/12 09:20:46;;;;;;;55.80;19.80;;;;;;;;;;5053656;28;20686;-77
2020/12/12 09:23:56;;;;;;;54.07;19.97;;;;;;;;;;5050123;28;20271;-78
2020/12/12 09:27:12;;;;;;;52.80;19.83;;;;;;;;;;5038081;28;20195;-78
2020/12/12 09:30:23;;;;;;;55.20;19.57;;;;;;;;;;5053861;28;20199;-78
2020/12/12 09:33:34;;;;;;;51.97;18.30;;;;;;;;;;5053739;28;20222;-78
2020/12/12 09:36:48;;;;;;;52.90;18.90;;;;;;;;;;5068366;28;20218;-77
2020/12/12 09:40:00;;;;;;;51.20;19.07;;;;;;;;;;5062065;28;20227;-78
2020/12/12 09:43:10;;;;;;;49.17;17.87;;;;;;;;;;5057754;28;20285;-76
2020/12/12 09:46:22;;;;;;;57.40;21.63;;;;;;;;;;5056523;28;20222;-77
2020/12/12 09:49:32;;;;;;;55.17;19.83;;;;;;;;;;5061277;28;20199;-76
2020/12/12 09:52:45;;;;;;;64.30;19.03;;;;;;;;;;5041152;28;20243;-77
2020/12/12 09:55:56;;;;;;;55.60;19.77;;;;;;;;;;5060081;28;20256;-77
2020/12/12 09:59:06;;;;;;;49.37;18.63;;;;;;;;;;5054801;28;20215;-78
2020/12/12 10:02:18;;;;;;;42.00;16.97;;;;;;;;;;5060930;28;20227;-76
2020/12/12 10:05:28;;;;;;;47.97;18.87;;;;;;;;;;5057546;28;20281;-76
2020/12/12 10:08:40;;;;;;;51.10;19.07;;;;;;;;;;5054658;28;20265;-76
2020/12/12 10:11:52;;;;;;;48.23;17.23;;;;;;;;;;5058120;28;20207;-76
2020/12/12 10:15:03;;;;;;;48.73;19.37;;;;;;;;;;5058202;28;20280;-77
2020/12/12 10:18:14;;;;;;;49.77;19.97;;;;;;;;;;5061897;28;20218;-77
2020/12/12 10:21:26;;;;;;;46.17;17.40;;;;;;;;;;5066596;28;20207;-77
2020/12/12 10:24:37;;;;;;;45.13;17.97;;;;;;;;;;5065186;28;20234;-77
2020/12/12 10:27:49;;;;;;;44.53;17.67;;;;;;;;;;5063984;28;20311;-78
2020/12/12 10:30:59;;;;;;;50.30;17.73;;;;;;;;;;5063893;28;20230;-78
2020/12/12 10:34:11;;;;;;;48.47;19.73;;;;;;;;;;5056089;28;20257;-78
2020/12/12 10:37:21;;;;;;;54.53;19.30;;;;;;;;;;5063340;28;20211;-79
2020/12/12 10:40:35;;;;;;;49.00;18.40;;;;;;;;;;5071449;28;20237;-78
2020/12/12 10:43:48;;;;;;;50.57;18.50;;;;;;;;;;5061704;28;20694;-77
2020/12/12 10:46:59;;;;;;;56.87;19.03;;;;;;;;;;5064001;28;20235;-78
2020/12/12 10:50:10;;;;;;;47.83;17.83;;;;;;;;;;5056139;28;20511;-77
2020/12/12 10:53:22;;;;;;;50.13;18.77;;;;;;;;;;5066065;28;20230;-78
2020/12/12 10:56:33;;;;;;;54.50;19.73;;;;;;;;;;5055443;28;20346;-76
2020/12/12 10:59:45;;;;;;;44.63;17.77;;;;;;;;;;5054990;28;20230;-77
2020/12/12 11:02:56;;;;;;;48.37;18.43;;;;;;;;;;5049336;28;20234;-77
2020/12/12 11:06:07;;;;;;;50.20;19.30;;;;;;;;;;5056897;28;20302;-79
2020/12/12 11:09:20;;;;;;;46.40;18.10;;;;;;;;;;5052216;28;20194;-79
2020/12/12 11:12:33;;;;;;;47.20;17.87;;;;;;;;;;5060310;28;20210;-78
2020/12/12 11:15:44;;;;;;;51.03;18.10;;;;;;;;;;5048091;28;20745;-77
2020/12/12 11:18:55;;;;;;;45.27;18.23;;;;;;;;;;5055038;28;20564;-76
2020/12/12 11:22:06;;;;;;;44.43;17.73;;;;;;;;;;5065803;28;20222;-76
2020/12/12 11:25:17;;;;;;;47.67;18.23;;;;;;;;;;5068361;28;20221;-76
2020/12/12 11:28:30;;;;;;;46.87;17.20;;;;;;;;;;5073107;28;20199;-77
2020/12/12 11:31:42;;;;;;;46.07;17.30;;;;;;;;;;5070225;28;20203;-77
2020/12/12 11:34:59;;;;;;;52.60;19.57;;;;;;;;;;5056840;28;20717;-77
2020/12/12 11:38:26;;;;;;;56.73;20.87;;;;;;;;;;5060073;28;20218;-77
2020/12/12 11:48:47;;;;;;;56.43;21.60;;;;;;;;;;5048353;28;20214;-76
2020/12/12 11:51:58;;;;;;;60.63;23.07;;;;;;;;;;5055132;28;20260;-75
2020/12/12 11:58:54;;;;;;;47.67;19.57;;;;;;;;;;5039742;28;20296;-75
2020/12/12 12:02:06;;;;;;;49.70;19.37;;;;;;;;;;5053831;28;20214;-76
2020/12/12 12:05:18;;;;;;;51.93;20.07;;;;;;;;;;5049894;28;20333;-76
2020/12/12 12:08:37;;;;;;;54.53;20.53;;;;;;;;;;5048614;28;20208;-76
2020/12/12 12:11:50;;;;;;;53.60;19.30;;;;;;;;;;5053102;28;20253;-76
2020/12/12 12:15:01;;;;;;;45.63;18.60;;;;;;;;;;5051698;28;20207;-77
2020/12/12 12:18:14;;;;;;;45.60;17.53;;;;;;;;;;5046675;28;20271;-77
2020/12/12 12:21:25;;;;;;;51.20;19.23;;;;;;;;;;5050486;28;20362;-76
2020/12/12 12:24:37;;;;;;;52.93;18.63;;;;;;;;;;5051824;28;20249;-76
2020/12/12 12:27:47;;;;;;;48.27;17.47;;;;;;;;;;5050121;28;20654;-76
2020/12/12 12:30:58;;;;;;;48.27;18.60;;;;;;;;;;5052627;28;20206;-76
2020/12/12 12:34:11;;;;;;;43.80;17.47;;;;;;;;;;5052380;28;20610;-76
2020/12/12 12:37:23;;;;;;;42.03;17.13;;;;;;;;;;5051486;28;20210;-76
2020/12/12 12:40:34;;;;;;;36.73;16.60;;;;;;;;;;5052272;28;20234;-76
2020/12/12 12:43:44;;;;;;;38.87;16.67;;;;;;;;;;5038994;28;20250;-76
2020/12/12 12:46:55;;;;;;;40.03;16.33;;;;;;;;;;5045330;28;20271;-76
2020/12/12 12:50:07;;;;;;;46.27;17.10;;;;;;;;;;5055167;28;20211;-76
2020/12/12 12:53:18;;;;;;;41.37;16.57;;;;;;;;;;5051818;28;20231;-77
2020/12/12 12:56:33;;;;;;;40.27;17.33;;;;;;;;;;5046710;28;20234;-78
2020/12/12 12:59:48;;;;;;;39.57;16.60;;;;;;;;;;5038465;28;20240;-79
2020/12/12 13:03:00;;;;;;;44.97;18.17;;;;;;;;;;5056605;28;20570;-77
2020/12/12 13:06:11;;;;;;;39.57;16.27;;;;;;;;;;5056017;28;20350;-77
2020/12/12 13:09:23;;;;;;;42.40;17.07;;;;;;;;;;5051768;28;20936;-75
2020/12/12 13:12:34;;;;;;;51.17;17.73;;;;;;;;;;5052175;28;20207;-77
2020/12/12 13:15:44;;;;;;;44.27;17.67;;;;;;;;;;5054596;28;20357;-77
2020/12/12 13:19:00;;;;;;;36.87;15.87;;;;;;;;;;5053671;28;20215;-75
2020/12/12 13:22:15;;;;;;;212.07;62.33;;;;;;;;;;5052990;28;20211;-77
2020/12/12 13:25:25;;;;;;;213.30;67.50;;;;;;;;;;5052150;28;20195;-74
2020/12/12 13:29:38;;;;;;;78.97;28.50;;;;;;;;;;5056528;28;20219;-75
2020/12/12 13:32:29;;;;;;;44.37;17.73;;;;;;;;;;5044081;28;20743;-75
2020/12/12 13:35:41;;;;;;;48.60;19.17;;;;;;;;;;5037754;28;20246;-76
2020/12/12 13:38:53;;;;;;;48.80;19.83;;;;;;;;;;5052288;28;20614;-76
2020/12/12 13:42:04;;;;;;;43.00;17.27;;;;;;;;;;5041333;28;20216;-75
2020/12/12 13:45:14;;;;;;;47.93;18.23;;;;;;;;;;5050517;28;20211;-76
2020/12/12 13:48:26;;;;;;;45.70;17.50;;;;;;;;;;5069215;28;20195;-75
2020/12/12 13:51:38;;;;;;;48.10;19.93;;;;;;;;;;5055667;28;20202;-75
2020/12/12 13:54:50;;;;;;;53.37;20.83;;;;;;;;;;5062830;28;20242;-75
2020/12/12 13:58:01;;;;;;;51.73;21.33;;;;;;;;;;5051373;28;20295;-76
2020/12/12 14:01:12;;;;;;;57.43;22.67;;;;;;;;;;5051953;28;20596;-75
2020/12/12 14:04:23;;;;;;;53.07;22.10;;;;;;;;;;5052389;28;20247;-76
2020/12/12 14:07:38;;;;;;;61.93;23.17;;;;;;;;;;5036856;28;20568;-74
2020/12/12 14:21:55;;;;;;;58.57;24.10;;;;;;;;;;4991626;28;20248;-76
2020/12/12 14:25:08;;;;;;;57.10;22.23;;;;;;;;;;5051209;28;20229;-76
2020/12/12 14:28:21;;;;;;;56.93;23.27;;;;;;;;;;5054271;28;20211;-76
2020/12/12 14:31:32;;;;;;;56.70;22.07;;;;;;;;;;5054338;28;20241;-76
2020/12/12 14:34:43;;;;;;;81.43;29.57;;;;;;;;;;5055947;28;20230;-77
2020/12/12 14:37:55;;;;;;;70.33;26.80;;;;;;;;;;5043538;28;20282;-78
2020/12/12 14:41:05;;;;;;;59.47;22.97;;;;;;;;;;5055952;28;20589;-77
2020/12/12 14:44:17;;;;;;;56.00;23.07;;;;;;;;;;5046063;28;20277;-78
2020/12/12 14:47:30;;;;;;;55.53;22.90;;;;;;;;;;5046326;28;20678;-77
2020/12/12 14:50:42;;;;;;;59.93;23.23;;;;;;;;;;5048930;28;20210;-76
2020/12/12 14:53:53;;;;;;;62.00;22.13;;;;;;;;;;5042046;28;20349;-76
2020/12/12 14:57:04;;;;;;;59.47;24.93;;;;;;;;;;5055408;28;20226;-76
2020/12/12 15:00:18;;;;;;;52.73;22.47;;;;;;;;;;5062567;28;20338;-76
2020/12/12 15:03:29;;;;;;;54.00;23.13;;;;;;;;;;5055430;28;20273;-77
2020/12/12 15:06:40;;;;;;;56.10;22.97;;;;;;;;;;5054868;28;20337;-75
2020/12/12 15:09:51;;;;;;;53.97;23.17;;;;;;;;;;5053076;28;20575;-77
2020/12/12 15:13:03;;;;;;;56.23;24.50;;;;;;;;;;5051270;28;20662;-76
2020/12/12 15:16:15;;;;;;;57.47;24.03;;;;;;;;;;5057809;28;20287;-76
2020/12/12 15:19:27;;;;;;;55.37;22.90;;;;;;;;;;5050607;28;20269;-77
2020/12/12 15:22:38;;;;;;;56.33;24.47;;;;;;;;;;5072988;28;20206;-76
2020/12/12 15:25:50;;;;;;;56.77;23.57;;;;;;;;;;5057557;28;20206;-75
2020/12/12 15:29:01;;;;;;;58.13;24.07;;;;;;;;;;5069665;28;20246;-76
2020/12/12 15:32:16;;;;;;;56.23;22.97;;;;;;;;;;5045361;28;20736;-76
2020/12/12 15:35:28;;;;;;;54.07;22.40;;;;;;;;;;5043531;28;20299;-76
2020/12/12 15:38:39;;;;;;;55.10;23.00;;;;;;;;;;5052811;28;20207;-76
2020/12/12 15:41:50;;;;;;;55.07;22.47;;;;;;;;;;5053510;28;20203;-76
2020/12/12 15:45:02;;;;;;;60.87;22.93;;;;;;;;;;5049661;28;20219;-75
2020/12/12 15:48:14;;;;;;;54.77;23.43;;;;;;;;;;5035418;28;20211;-76
2020/12/12 15:51:26;;;;;;;63.37;25.63;;;;;;;;;;5049630;28;20630;-76
2020/12/12 15:54:38;;;;;;;58.93;24.00;;;;;;;;;;5051229;28;20709;-76
2020/12/12 15:57:49;;;;;;;63.57;24.23;;;;;;;;;;5052759;28;20214;-76
2020/12/12 16:01:00;;;;;;;59.20;23.73;;;;;;;;;;5037199;28;20631;-76
2020/12/12 16:04:12;;;;;;;58.73;23.00;;;;;;;;;;5052653;28;20254;-76
2020/12/12 16:07:23;;;;;;;59.73;23.43;;;;;;;;;;5049439;28;20208;-74
2020/12/12 16:10:35;;;;;;;56.57;22.33;;;;;;;;;;5051463;28;20206;-76
2020/12/12 16:13:45;;;;;;;59.07;24.30;;;;;;;;;;5040619;28;20281;-76
2020/12/12 16:17:02;;;;;;;61.77;24.63;;;;;;;;;;5052508;28;20295;-76
2020/12/12 16:20:18;;;;;;;60.27;24.60;;;;;;;;;;5053196;28;20223;-76
2020/12/12 16:23:29;;;;;;;57.87;25.10;;;;;;;;;;5053291;28;20586;-76
2020/12/12 16:26:40;;;;;;;63.17;24.83;;;;;;;;;;5050827;28;20214;-76
2020/12/12 16:29:53;;;;;;;69.00;27.23;;;;;;;;;;5065280;28;20203;-76
2020/12/12 16:33:03;;;;;;;61.07;25.50;;;;;;;;;;5055743;28;20262;-76
2020/12/12 16:36:15;;;;;;;61.83;25.67;;;;;;;;;;5053536;28;20325;-77
2020/12/12 16:39:26;;;;;;;61.83;25.90;;;;;;;;;;5059202;28;20211;-77
2020/12/12 16:42:37;;;;;;;58.33;26.07;;;;;;;;;;5050030;28;20583;-77
2020/12/12 16:45:48;;;;;;;57.70;24.23;;;;;;;;;;5051138;28;20280;-76
2020/12/12 16:49:00;;;;;;;61.23;25.93;;;;;;;;;;5052670;28;20723;-76
2020/12/12 16:52:13;;;;;;;62.33;26.83;;;;;;;;;;5047575;28;20387;-76
2020/12/12 16:55:27;;;;;;;62.73;25.03;;;;;;;;;;5054115;28;20206;-76
2020/12/12 16:58:38;;;;;;;56.27;22.97;;;;;;;;;;5052849;28;20215;-76
2020/12/12 17:01:49;;;;;;;55.43;23.57;;;;;;;;;;5049060;28;20578;-76
2020/12/12 17:05:01;;;;;;;57.50;23.00;;;;;;;;;;5062161;28;20222;-77
2020/12/12 17:08:13;;;;;;;56.20;22.03;;;;;;;;;;5063420;28;20215;-77
2020/12/12 17:11:26;;;;;;;54.83;23.10;;;;;;;;;;5064877;28;20197;-77
2020/12/12 17:14:38;;;;;;;61.60;23.10;;;;;;;;;;5062705;28;20345;-77
2020/12/12 17:17:51;;;;;;;56.87;23.93;;;;;;;;;;5058538;28;20296;-77
2020/12/12 17:21:01;;;;;;;59.50;25.13;;;;;;;;;;5073909;28;20217;-76
2020/12/12 17:24:42;;;;;;;59.53;24.83;;;;;;;;;;5092887;28;20229;-79
2020/12/12 17:27:55;;;;;;;57.83;24.17;;;;;;;;;;5065334;28;20206;-79
2020/12/12 17:31:07;;;;;;;56.13;24.70;;;;;;;;;;5066348;28;20214;-78
2020/12/12 17:34:17;;;;;;;58.93;24.57;;;;;;;;;;5065337;28;20640;-80
2020/12/12 17:37:29;;;;;;;58.80;24.60;;;;;;;;;;5064661;28;20268;-80
2020/12/12 17:40:41;;;;;;;59.93;25.33;;;;;;;;;;5064941;28;20744;-77
2020/12/12 17:43:55;;;;;;;62.80;26.57;;;;;;;;;;5067139;28;20275;-79
2020/12/12 17:47:06;;;;;;;62.13;23.33;;;;;;;;;;5065744;28;20228;-79
2020/12/12 17:50:17;;;;;;;61.60;27.03;;;;;;;;;;5067454;28;20202;-78
2020/12/12 17:53:29;;;;;;;59.87;26.67;;;;;;;;;;5060043;28;20253;-80
2020/12/12 17:56:40;;;;;;;62.93;26.30;;;;;;;;;;5066815;28;20765;-78
2020/12/12 17:59:51;;;;;;;60.60;26.73;;;;;;;;;;5071817;28;20219;-77
2020/12/12 18:03:03;;;;;;;70.13;29.67;;;;;;;;;;5067449;28;20229;-78
2020/12/12 18:06:15;;;;;;;62.33;27.37;;;;;;;;;;5069887;28;20198;-78
2020/12/12 18:09:28;;;;;;;67.87;27.43;;;;;;;;;;5067149;28;21924;-79
2020/12/12 18:12:39;;;;;;;66.50;28.17;;;;;;;;;;5067746;28;20298;-78
2020/12/12 18:15:52;;;;;;;64.13;27.50;;;;;;;;;;5050230;28;20214;-78
2020/12/12 18:19:03;;;;;;;67.17;27.77;;;;;;;;;;5064334;28;20210;-78
2020/12/12 18:22:15;;;;;;;70.67;27.53;;;;;;;;;;5064124;28;20191;-77
2020/12/12 18:25:25;;;;;;;64.10;26.07;;;;;;;;;;5061317;28;20269;-78
2020/12/12 18:28:37;;;;;;;64.20;26.03;;;;;;;;;;5074955;28;20195;-76
2020/12/12 18:31:49;;;;;;;67.57;27.17;;;;;;;;;;5073151;28;20268;-79
2020/12/12 18:35:01;;;;;;;59.37;26.47;;;;;;;;;;5061617;28;20198;-78
2020/12/12 18:38:11;;;;;;;68.40;27.80;;;;;;;;;;5057857;28;20210;-77
2020/12/12 18:41:22;;;;;;;60.93;25.93;;;;;;;;;;5066421;28;20360;-78
2020/12/12 18:44:34;;;;;;;57.90;24.77;;;;;;;;;;5063201;28;20249;-77
2020/12/12 18:47:47;;;;;;;64.13;27.03;;;;;;;;;;5064178;28;20207;-78
2020/12/12 18:50:58;;;;;;;62.47;24.97;;;;;;;;;;5059997;28;20265;-78
2020/12/12 18:54:10;;;;;;;57.33;24.27;;;;;;;;;;5061077;28;20235;-78
2020/12/12 18:57:21;;;;;;;56.80;24.17;;;;;;;;;;5063896;28;20222;-77
2020/12/12 19:00:33;;;;;;;59.77;24.73;;;;;;;;;;5061434;28;20238;-78